首页
METAR-TAF:

METAR-TAF

机场 :

瓦岱國際機場

永珍, 老挝

纬度: 17-57N, 经度: 102-34E, 海拔: 171米

当前天气观测

该预报发布于51分钟前的14:00 UTC
风速2节,风向西北
温度 27°C
湿度 94%
气压 1013 hPa
能見度: 4000
散云层高于4000英尺
轻雾

METAR: VLVT 231400Z 32002KT 4000 BR SCT040 27/26 Q1013 NOSIG

时间: 21:51 (14:51 UTC)

预报

该预报发布于3小时和51分钟前的11:00 UTC
预报有效从23日的 12点(UTC)到 24日的 12点(UTC)
风速6节,风向东北
能見度: 8000
散云层高于1600英尺
散云层高于4000英尺
多云层高于8300英尺
短暂存在
从 23日的 14点(UTC)到 23日的 20点(UTC)
能見度: 3000
少量云层高于2000英尺, 积雨云.
多云层高于5000英尺
雷暴

TAF: VLVT 231100Z 2312/2412 04006KT 8000 SCT016 SCT040 BKN083 TEMPO 2314/2320 3000 TS FEW020CB BKN050

超过4000个机场的气象观测和天气预报(METAR&TAF报告)。

可查询的气象台以黄色和红色小点在地图上表示。

将鼠标移到小点上方,可查看气象台名称。

然后点击查看天气观测和预报。

如需切换地图:点击带黑十字的绿色按钮放大地图;点击带横线的绿色按钮缩小地图;或者点击绿色箭头查看邻近地区的地图。


METAR-TAF: